sensor_id;sensor_type;location;lat;lon;timestamp;temperature;humidity
78467;SHT31;67759;51.972;5.650;2024-03-06T00:02:08;13.2;50.2
78467;SHT31;67759;51.972;5.650;2024-03-06T00:04:37;13.1;50.2
78467;SHT31;67759;51.972;5.650;2024-03-06T00:07:06;13.1;49.9
78467;SHT31;67759;51.972;5.650;2024-03-06T00:09:34;13.1;52.0
78467;SHT31;67759;51.972;5.650;2024-03-06T00:12:03;13.0;53.2
78467;SHT31;67759;51.972;5.650;2024-03-06T00:14:32;13.0;52.9
78467;SHT31;67759;51.972;5.650;2024-03-06T00:17:04;13.0;51.1
78467;SHT31;67759;51.972;5.650;2024-03-06T00:19:35;13.0;50.1
78467;SHT31;67759;51.972;5.650;2024-03-06T00:22:03;12.9;50.2
78467;SHT31;67759;51.972;5.650;2024-03-06T00:24:32;12.9;49.7
78467;SHT31;67759;51.972;5.650;2024-03-06T00:27:00;12.8;50.0
78467;SHT31;67759;51.972;5.650;2024-03-06T00:29:30;12.8;49.8
78467;SHT31;67759;51.972;5.650;2024-03-06T00:31:59;12.8;49.8
78467;SHT31;67759;51.972;5.650;2024-03-06T00:34:28;12.8;49.5
78467;SHT31;67759;51.972;5.650;2024-03-06T00:36:58;12.7;49.7
78467;SHT31;67759;51.972;5.650;2024-03-06T00:39:27;12.7;49.5
78467;SHT31;67759;51.972;5.650;2024-03-06T00:41:56;12.7;49.4
78467;SHT31;67759;51.972;5.650;2024-03-06T00:44:24;12.7;49.8
78467;SHT31;67759;51.972;5.650;2024-03-06T00:46:53;12.6;49.5
78467;SHT31;67759;51.972;5.650;2024-03-06T00:49:21;12.6;49.6
78467;SHT31;67759;51.972;5.650;2024-03-06T00:51:50;12.6;49.7
78467;SHT31;67759;51.972;5.650;2024-03-06T00:54:20;12.5;50.3
78467;SHT31;67759;51.972;5.650;2024-03-06T00:56:49;12.5;50.1
78467;SHT31;67759;51.972;5.650;2024-03-06T00:59:17;12.4;50.0
78467;SHT31;67759;51.972;5.650;2024-03-06T01:01:46;12.4;49.8
78467;SHT31;67759;51.972;5.650;2024-03-06T01:04:15;12.4;49.5
78467;SHT31;67759;51.972;5.650;2024-03-06T01:06:45;12.3;49.6
78467;SHT31;67759;51.972;5.650;2024-03-06T01:09:14;12.3;49.6
78467;SHT31;67759;51.972;5.650;2024-03-06T01:11:43;12.2;49.8
78467;SHT31;67759;51.972;5.650;2024-03-06T01:14:13;12.2;49.7
78467;SHT31;67759;51.972;5.650;2024-03-06T01:16:43;12.1;49.7
78467;SHT31;67759;51.972;5.650;2024-03-06T01:19:11;12.1;49.8
78467;SHT31;67759;51.972;5.650;2024-03-06T01:21:43;12.1;50.0
78467;SHT31;67759;51.972;5.650;2024-03-06T01:24:11;12.0;50.0
78467;SHT31;67759;51.972;5.650;2024-03-06T01:26:40;12.0;50.0
78467;SHT31;67759;51.972;5.650;2024-03-06T01:29:08;12.0;49.9
78467;SHT31;67759;51.972;5.650;2024-03-06T01:31:37;11.9;49.9
78467;SHT31;67759;51.972;5.650;2024-03-06T01:34:07;11.9;49.9
78467;SHT31;67759;51.972;5.650;2024-03-06T01:36:35;11.9;49.9
78467;SHT31;67759;51.972;5.650;2024-03-06T01:39:03;11.8;49.9
78467;SHT31;67759;51.972;5.650;2024-03-06T01:41:33;11.8;49.9
78467;SHT31;67759;51.972;5.650;2024-03-06T01:44:02;11.8;50.0
78467;SHT31;67759;51.972;5.650;2024-03-06T01:46:31;11.7;50.2
78467;SHT31;67759;51.972;5.650;2024-03-06T01:49:00;11.7;50.2
78467;SHT31;67759;51.972;5.650;2024-03-06T01:51:28;11.7;50.2
78467;SHT31;67759;51.972;5.650;2024-03-06T01:53:58;11.6;50.3
78467;SHT31;67759;51.972;5.650;2024-03-06T01:56:33;11.6;50.1
78467;SHT31;67759;51.972;5.650;2024-03-06T01:59:02;11.6;50.5
78467;SHT31;67759;51.972;5.650;2024-03-06T02:01:32;11.6;50.3
78467;SHT31;67759;51.972;5.650;2024-03-06T02:04:01;11.6;50.2
78467;SHT31;67759;51.972;5.650;2024-03-06T02:06:31;11.6;50.0
78467;SHT31;67759;51.972;5.650;2024-03-06T02:09:01;11.6;49.9
78467;SHT31;67759;51.972;5.650;2024-03-06T02:11:31;11.5;49.9
78467;SHT31;67759;51.972;5.650;2024-03-06T02:14:01;11.5;50.2
78467;SHT31;67759;51.972;5.650;2024-03-06T02:16:29;11.5;50.3
78467;SHT31;67759;51.972;5.650;2024-03-06T02:18:58;11.4;50.3
78467;SHT31;67759;51.972;5.650;2024-03-06T02:21:26;11.4;49.9
78467;SHT31;67759;51.972;5.650;2024-03-06T02:23:55;11.4;49.9
78467;SHT31;67759;51.972;5.650;2024-03-06T02:26:25;11.3;50.2
78467;SHT31;67759;51.972;5.650;2024-03-06T02:28:56;11.4;50.5
78467;SHT31;67759;51.972;5.650;2024-03-06T02:31:25;11.4;50.3
78467;SHT31;67759;51.972;5.650;2024-03-06T02:33:53;11.4;50.0
78467;SHT31;67759;51.972;5.650;2024-03-06T02:36:22;11.4;49.8
78467;SHT31;67759;51.972;5.650;2024-03-06T02:38:51;11.4;49.8
78467;SHT31;67759;51.972;5.650;2024-03-06T02:41:19;11.4;49.7
78467;SHT31;67759;51.972;5.650;2024-03-06T02:43:50;11.3;49.6
78467;SHT31;67759;51.972;5.650;2024-03-06T02:46:19;11.3;49.6
78467;SHT31;67759;51.972;5.650;2024-03-06T02:48:47;11.3;49.7
78467;SHT31;67759;51.972;5.650;2024-03-06T02:51:20;11.2;50.0
78467;SHT31;67759;51.972;5.650;2024-03-06T02:53:48;11.2;50.2
78467;SHT31;67759;51.972;5.650;2024-03-06T02:56:19;11.2;50.2
78467;SHT31;67759;51.972;5.650;2024-03-06T02:58:48;11.1;50.4
78467;SHT31;67759;51.972;5.650;2024-03-06T03:01:17;11.1;50.2
78467;SHT31;67759;51.972;5.650;2024-03-06T03:03:45;11.1;50.7
78467;SHT31;67759;51.972;5.650;2024-03-06T03:06:15;11.1;51.3
78467;SHT31;67759;51.972;5.650;2024-03-06T03:08:45;11.1;51.2
78467;SHT31;67759;51.972;5.650;2024-03-06T03:11:14;11.1;50.7
78467;SHT31;67759;51.972;5.650;2024-03-06T03:13:43;11.0;50.3
78467;SHT31;67759;51.972;5.650;2024-03-06T03:16:17;11.0;50.4
78467;SHT31;67759;51.972;5.650;2024-03-06T03:18:47;10.9;50.1
78467;SHT31;67759;51.972;5.650;2024-03-06T03:21:16;10.9;50.5
78467;SHT31;67759;51.972;5.650;2024-03-06T03:23:45;10.9;50.4
78467;SHT31;67759;51.972;5.650;2024-03-06T03:26:13;10.9;50.3
78467;SHT31;67759;51.972;5.650;2024-03-06T03:28:42;10.8;50.2
78467;SHT31;67759;51.972;5.650;2024-03-06T03:31:11;10.8;49.8
78467;SHT31;67759;51.972;5.650;2024-03-06T03:33:41;10.8;49.8
78467;SHT31;67759;51.972;5.650;2024-03-06T03:36:10;10.7;50.1
78467;SHT31;67759;51.972;5.650;2024-03-06T03:38:39;10.7;50.4
78467;SHT31;67759;51.972;5.650;2024-03-06T03:41:09;10.7;50.5
78467;SHT31;67759;51.972;5.650;2024-03-06T03:43:39;10.7;50.5
78467;SHT31;67759;51.972;5.650;2024-03-06T03:46:08;10.6;50.5
78467;SHT31;67759;51.972;5.650;2024-03-06T03:48:37;10.6;51.2
78467;SHT31;67759;51.972;5.650;2024-03-06T03:51:06;10.6;51.3
78467;SHT31;67759;51.972;5.650;2024-03-06T03:53:35;10.6;51.0
78467;SHT31;67759;51.972;5.650;2024-03-06T03:56:04;10.6;50.7
78467;SHT31;67759;51.972;5.650;2024-03-06T03:58:34;10.5;50.6
78467;SHT31;67759;51.972;5.650;2024-03-06T04:01:03;10.5;50.5
78467;SHT31;67759;51.972;5.650;2024-03-06T04:03:32;10.5;50.4
78467;SHT31;67759;51.972;5.650;2024-03-06T04:06:03;10.4;50.4
78467;SHT31;67759;51.972;5.650;2024-03-06T04:08:34;10.4;50.5
78467;SHT31;67759;51.972;5.650;2024-03-06T04:11:04;10.4;50.4
78467;SHT31;67759;51.972;5.650;2024-03-06T04:13:35;10.3;50.3
78467;SHT31;67759;51.972;5.650;2024-03-06T04:16:05;10.3;50.2
78467;SHT31;67759;51.972;5.650;2024-03-06T04:18:34;10.3;50.2
78467;SHT31;67759;51.972;5.650;2024-03-06T04:21:04;10.3;50.2
78467;SHT31;67759;51.972;5.650;2024-03-06T04:23:33;10.2;50.3
78467;SHT31;67759;51.972;5.650;2024-03-06T04:26:02;10.2;50.4
78467;SHT31;67759;51.972;5.650;2024-03-06T04:28:32;10.2;50.3
78467;SHT31;67759;51.972;5.650;2024-03-06T04:31:03;10.2;50.4
78467;SHT31;67759;51.972;5.650;2024-03-06T04:33:36;10.2;50.3
78467;SHT31;67759;51.972;5.650;2024-03-06T04:36:07;10.2;50.3
78467;SHT31;67759;51.972;5.650;2024-03-06T04:38:36;10.2;50.1
78467;SHT31;67759;51.972;5.650;2024-03-06T04:41:05;10.2;50.0
78467;SHT31;67759;51.972;5.650;2024-03-06T04:43:34;10.2;49.9
78467;SHT31;67759;51.972;5.650;2024-03-06T04:46:04;10.2;49.7
78467;SHT31;67759;51.972;5.650;2024-03-06T04:48:32;10.1;49.7
78467;SHT31;67759;51.972;5.650;2024-03-06T04:51:01;10.1;49.8
78467;SHT31;67759;51.972;5.650;2024-03-06T04:53:30;10.1;50.0
78467;SHT31;67759;51.972;5.650;2024-03-06T04:55:58;10.1;50.2
78467;SHT31;67759;51.972;5.650;2024-03-06T04:58:26;10.1;50.1
78467;SHT31;67759;51.972;5.650;2024-03-06T05:00:55;10.1;50.1
78467;SHT31;67759;51.972;5.650;2024-03-06T05:03:24;10.1;49.9
78467;SHT31;67759;51.972;5.650;2024-03-06T05:05:55;10.1;49.6
78467;SHT31;67759;51.972;5.650;2024-03-06T05:08:25;10.1;49.7
78467;SHT31;67759;51.972;5.650;2024-03-06T05:10:55;10.1;49.6
78467;SHT31;67759;51.972;5.650;2024-03-06T05:13:24;10.0;49.7
78467;SHT31;67759;51.972;5.650;2024-03-06T05:15:53;10.0;50.2
78467;SHT31;67759;51.972;5.650;2024-03-06T05:18:22;10.1;50.2
78467;SHT31;67759;51.972;5.650;2024-03-06T05:20:50;10.1;50.0
78467;SHT31;67759;51.972;5.650;2024-03-06T05:23:20;10.0;49.7
78467;SHT31;67759;51.972;5.650;2024-03-06T05:25:49;10.0;49.7
78467;SHT31;67759;51.972;5.650;2024-03-06T05:28:18;10.0;50.3
78467;SHT31;67759;51.972;5.650;2024-03-06T05:30:46;10.0;50.1
78467;SHT31;67759;51.972;5.650;2024-03-06T05:33:15;10.0;49.6
78467;SHT31;67759;51.972;5.650;2024-03-06T05:35:44;9.9;49.6
78467;SHT31;67759;51.972;5.650;2024-03-06T05:38:12;9.9;49.5
78467;SHT31;67759;51.972;5.650;2024-03-06T05:40:41;9.9;49.5
78467;SHT31;67759;51.972;5.650;2024-03-06T05:43:11;9.9;49.6
78467;SHT31;67759;51.972;5.650;2024-03-06T05:45:40;9.9;49.6
78467;SHT31;67759;51.972;5.650;2024-03-06T05:48:09;9.9;49.6
78467;SHT31;67759;51.972;5.650;2024-03-06T05:50:37;9.9;49.4
78467;SHT31;67759;51.972;5.650;2024-03-06T05:53:06;9.8;50.3
78467;SHT31;67759;51.972;5.650;2024-03-06T05:55:34;9.8;52.6
78467;SHT31;67759;51.972;5.650;2024-03-06T05:58:03;9.8;54.9
78467;SHT31;67759;51.972;5.650;2024-03-06T06:00:32;9.8;55.8
78467;SHT31;67759;51.972;5.650;2024-03-06T06:03:01;9.8;55.3
78467;SHT31;67759;51.972;5.650;2024-03-06T06:05:29;9.8;54.2
78467;SHT31;67759;51.972;5.650;2024-03-06T06:07:58;9.8;53.7
78467;SHT31;67759;51.972;5.650;2024-03-06T06:10:27;9.9;54.7
78467;SHT31;67759;51.972;5.650;2024-03-06T06:12:55;9.9;55.0
78467;SHT31;67759;51.972;5.650;2024-03-06T06:15:24;9.9;53.9
78467;SHT31;67759;51.972;5.650;2024-03-06T06:17:53;10.0;52.9
78467;SHT31;67759;51.972;5.650;2024-03-06T06:20:21;10.1;53.8
78467;SHT31;67759;51.972;5.650;2024-03-06T06:22:50;10.1;52.0
78467;SHT31;67759;51.972;5.650;2024-03-06T06:25:19;10.1;51.6
78467;SHT31;67759;51.972;5.650;2024-03-06T06:27:47;10.0;50.7
78467;SHT31;67759;51.972;5.650;2024-03-06T06:30:16;10.1;50.5
78467;SHT31;67759;51.972;5.650;2024-03-06T06:32:45;10.1;51.2
78467;SHT31;67759;51.972;5.650;2024-03-06T06:35:14;10.2;51.2
78467;SHT31;67759;51.972;5.650;2024-03-06T06:37:43;10.3;51.9
78467;SHT31;67759;51.972;5.650;2024-03-06T06:40:13;10.3;51.8
78467;SHT31;67759;51.972;5.650;2024-03-06T06:42:47;10.4;50.8
78467;SHT31;67759;51.972;5.650;2024-03-06T06:45:17;10.5;50.4
78467;SHT31;67759;51.972;5.650;2024-03-06T06:47:47;10.6;50.3
78467;SHT31;67759;51.972;5.650;2024-03-06T06:50:16;10.7;50.6
78467;SHT31;67759;51.972;5.650;2024-03-06T06:52:44;10.7;51.5
78467;SHT31;67759;51.972;5.650;2024-03-06T06:55:14;10.8;54.4
78467;SHT31;67759;51.972;5.650;2024-03-06T06:57:42;10.9;56.2
78467;SHT31;67759;51.972;5.650;2024-03-06T07:00:11;10.9;56.7
78467;SHT31;67759;51.972;5.650;2024-03-06T07:02:45;10.9;57.1
78467;SHT31;67759;51.972;5.650;2024-03-06T07:05:14;11.0;57.2
78467;SHT31;67759;51.972;5.650;2024-03-06T07:07:43;11.1;56.7
78467;SHT31;67759;51.972;5.650;2024-03-06T07:10:14;11.1;56.2
78467;SHT31;67759;51.972;5.650;2024-03-06T07:12:42;11.1;56.0
78467;SHT31;67759;51.972;5.650;2024-03-06T07:15:11;11.1;55.7
78467;SHT31;67759;51.972;5.650;2024-03-06T07:17:39;11.1;55.7
78467;SHT31;67759;51.972;5.650;2024-03-06T07:20:09;11.1;55.9
78467;SHT31;67759;51.972;5.650;2024-03-06T07:22:38;11.0;56.0
78467;SHT31;67759;51.972;5.650;2024-03-06T07:25:07;11.0;56.4
78467;SHT31;67759;51.972;5.650;2024-03-06T07:27:36;11.0;56.5
78467;SHT31;67759;51.972;5.650;2024-03-06T07:30:05;11.0;56.4
78467;SHT31;67759;51.972;5.650;2024-03-06T07:32:34;11.0;56.0
78467;SHT31;67759;51.972;5.650;2024-03-06T07:35:03;11.0;55.9
78467;SHT31;67759;51.972;5.650;2024-03-06T07:37:32;11.0;56.2
78467;SHT31;67759;51.972;5.650;2024-03-06T07:40:01;10.9;56.7
78467;SHT31;67759;51.972;5.650;2024-03-06T07:42:31;10.9;57.2
78467;SHT31;67759;51.972;5.650;2024-03-06T07:45:00;10.9;57.4
78467;SHT31;67759;51.972;5.650;2024-03-06T07:47:30;11.0;57.7
78467;SHT31;67759;51.972;5.650;2024-03-06T07:49:58;11.0;57.5
78467;SHT31;67759;51.972;5.650;2024-03-06T07:52:27;11.1;57.3
78467;SHT31;67759;51.972;5.650;2024-03-06T07:54:55;11.2;56.9
78467;SHT31;67759;51.972;5.650;2024-03-06T07:57:24;11.2;56.7
78467;SHT31;67759;51.972;5.650;2024-03-06T07:59:53;11.3;56.5
78467;SHT31;67759;51.972;5.650;2024-03-06T08:02:21;11.3;56.5
78467;SHT31;67759;51.972;5.650;2024-03-06T08:04:50;11.4;56.4
78467;SHT31;67759;51.972;5.650;2024-03-06T08:07:18;11.4;56.6
78467;SHT31;67759;51.972;5.650;2024-03-06T08:09:47;11.4;56.6
78467;SHT31;67759;51.972;5.650;2024-03-06T08:12:16;11.5;56.8
78467;SHT31;67759;51.972;5.650;2024-03-06T08:14:44;11.5;56.5
78467;SHT31;67759;51.972;5.650;2024-03-06T08:17:13;11.5;56.6
78467;SHT31;67759;51.972;5.650;2024-03-06T08:19:41;11.6;56.7
78467;SHT31;67759;51.972;5.650;2024-03-06T08:22:10;11.6;56.3
78467;SHT31;67759;51.972;5.650;2024-03-06T08:24:39;11.7;56.6
78467;SHT31;67759;51.972;5.650;2024-03-06T08:27:07;11.7;56.5
78467;SHT31;67759;51.972;5.650;2024-03-06T08:29:36;11.8;56.9
78467;SHT31;67759;51.972;5.650;2024-03-06T08:32:05;11.9;56.8
78467;SHT31;67759;51.972;5.650;2024-03-06T08:34:33;11.9;56.5
78467;SHT31;67759;51.972;5.650;2024-03-06T08:37:03;12.0;56.5
78467;SHT31;67759;51.972;5.650;2024-03-06T08:39:32;12.0;56.8
78467;SHT31;67759;51.972;5.650;2024-03-06T08:42:00;12.0;57.1
78467;SHT31;67759;51.972;5.650;2024-03-06T08:44:29;12.1;57.3
78467;SHT31;67759;51.972;5.650;2024-03-06T08:46:58;12.2;57.4
78467;SHT31;67759;51.972;5.650;2024-03-06T08:49:26;12.3;57.2
78467;SHT31;67759;51.972;5.650;2024-03-06T08:51:55;12.4;56.8
78467;SHT31;67759;51.972;5.650;2024-03-06T08:54:23;12.4;56.6
78467;SHT31;67759;51.972;5.650;2024-03-06T08:56:51;12.5;56.8
78467;SHT31;67759;51.972;5.650;2024-03-06T08:59:24;12.5;56.4
78467;SHT31;67759;51.972;5.650;2024-03-06T09:01:54;12.5;56.0
78467;SHT31;67759;51.972;5.650;2024-03-06T09:04:24;12.5;55.8
78467;SHT31;67759;51.972;5.650;2024-03-06T09:06:52;12.6;56.2
78467;SHT31;67759;51.972;5.650;2024-03-06T09:09:21;12.6;56.7
78467;SHT31;67759;51.972;5.650;2024-03-06T09:11:49;12.6;56.7
78467;SHT31;67759;51.972;5.650;2024-03-06T09:14:18;12.7;56.7
78467;SHT31;67759;51.972;5.650;2024-03-06T09:16:46;12.8;56.4
78467;SHT31;67759;51.972;5.650;2024-03-06T09:19:15;12.9;56.0
78467;SHT31;67759;51.972;5.650;2024-03-06T09:21:43;13.0;56.6
78467;SHT31;67759;51.972;5.650;2024-03-06T09:24:12;13.1;56.5
78467;SHT31;67759;51.972;5.650;2024-03-06T09:26:41;13.2;56.9
78467;SHT31;67759;51.972;5.650;2024-03-06T09:29:09;13.4;55.8
78467;SHT31;67759;51.972;5.650;2024-03-06T09:31:38;13.5;56.1
78467;SHT31;67759;51.972;5.650;2024-03-06T09:34:06;13.6;55.0
78467;SHT31;67759;51.972;5.650;2024-03-06T09:36:37;13.7;54.8
78467;SHT31;67759;51.972;5.650;2024-03-06T09:39:06;13.7;54.3
78467;SHT31;67759;51.972;5.650;2024-03-06T09:41:35;13.8;54.4
78467;SHT31;67759;51.972;5.650;2024-03-06T09:44:09;13.8;54.5
78467;SHT31;67759;51.972;5.650;2024-03-06T09:46:38;13.9;55.4
78467;SHT31;67759;51.972;5.650;2024-03-06T09:49:08;13.9;54.6
78467;SHT31;67759;51.972;5.650;2024-03-06T09:51:39;14.0;54.5
78467;SHT31;67759;51.972;5.650;2024-03-06T09:54:09;14.1;53.9
78467;SHT31;67759;51.972;5.650;2024-03-06T09:56:38;14.1;53.7
78467;SHT31;67759;51.972;5.650;2024-03-06T09:59:06;14.2;53.7
78467;SHT31;67759;51.972;5.650;2024-03-06T10:01:39;14.2;54.2
78467;SHT31;67759;51.972;5.650;2024-03-06T10:04:22;14.2;54.2
78467;SHT31;67759;51.972;5.650;2024-03-06T10:06:53;14.2;54.3
78467;SHT31;67759;51.972;5.650;2024-03-06T10:09:23;14.3;53.9
78467;SHT31;67759;51.972;5.650;2024-03-06T10:11:53;14.4;53.0
78467;SHT31;67759;51.972;5.650;2024-03-06T10:14:23;14.4;53.9
78467;SHT31;67759;51.972;5.650;2024-03-06T10:16:57;14.5;54.1
78467;SHT31;67759;51.972;5.650;2024-03-06T10:19:28;14.6;53.0
78467;SHT31;67759;51.972;5.650;2024-03-06T10:21:57;14.7;52.9
78467;SHT31;67759;51.972;5.650;2024-03-06T10:24:28;14.7;52.3
78467;SHT31;67759;51.972;5.650;2024-03-06T10:26:58;14.8;52.1
78467;SHT31;67759;51.972;5.650;2024-03-06T10:29:28;14.8;51.7
78467;SHT31;67759;51.972;5.650;2024-03-06T10:31:58;14.8;52.2
78467;SHT31;67759;51.972;5.650;2024-03-06T10:34:28;14.8;52.3
78467;SHT31;67759;51.972;5.650;2024-03-06T10:36:58;14.8;52.4
78467;SHT31;67759;51.972;5.650;2024-03-06T10:39:27;14.8;52.9
78467;SHT31;67759;51.972;5.650;2024-03-06T10:41:59;14.9;53.1
78467;SHT31;67759;51.972;5.650;2024-03-06T10:44:34;15.0;52.9
78467;SHT31;67759;51.972;5.650;2024-03-06T10:47:10;15.1;52.1
78467;SHT31;67759;51.972;5.650;2024-03-06T10:49:40;15.1;51.8
78467;SHT31;67759;51.972;5.650;2024-03-06T10:52:09;15.2;51.5
78467;SHT31;67759;51.972;5.650;2024-03-06T10:54:39;15.3;51.2
78467;SHT31;67759;51.972;5.650;2024-03-06T10:57:10;15.3;51.0
78467;SHT31;67759;51.972;5.650;2024-03-06T10:59:40;15.4;50.5
78467;SHT31;67759;51.972;5.650;2024-03-06T11:02:10;15.4;50.5
78467;SHT31;67759;51.972;5.650;2024-03-06T11:04:40;15.4;51.0
78467;SHT31;67759;51.972;5.650;2024-03-06T11:07:09;15.4;51.5
78467;SHT31;67759;51.972;5.650;2024-03-06T11:09:38;15.4;51.1
78467;SHT31;67759;51.972;5.650;2024-03-06T11:12:09;15.5;51.5
78467;SHT31;67759;51.972;5.650;2024-03-06T11:14:39;15.5;52.0
78467;SHT31;67759;51.972;5.650;2024-03-06T11:17:09;15.6;51.6
78467;SHT31;67759;51.972;5.650;2024-03-06T11:20:15;15.7;50.5
78467;SHT31;67759;51.972;5.650;2024-03-06T11:23:07;15.7;51.0
78467;SHT31;67759;51.972;5.650;2024-03-06T11:26:00;15.8;51.0
78467;SHT31;67759;51.972;5.650;2024-03-06T11:28:30;15.9;50.7
78467;SHT31;67759;51.972;5.650;2024-03-06T11:31:01;15.9;49.8
78467;SHT31;67759;51.972;5.650;2024-03-06T11:33:37;15.9;49.2
78467;SHT31;67759;51.972;5.650;2024-03-06T11:36:23;15.9;49.5
78467;SHT31;67759;51.972;5.650;2024-03-06T11:38:56;15.9;50.0
78467;SHT31;67759;51.972;5.650;2024-03-06T11:41:27;15.9;50.4
78467;SHT31;67759;51.972;5.650;2024-03-06T11:44:00;15.9;50.2
78467;SHT31;67759;51.972;5.650;2024-03-06T11:46:43;15.9;50.6
78467;SHT31;67759;51.972;5.650;2024-03-06T11:49:18;15.9;50.7
78467;SHT31;67759;51.972;5.650;2024-03-06T11:51:51;16.0;51.5
78467;SHT31;67759;51.972;5.650;2024-03-06T11:54:20;16.1;50.9
78467;SHT31;67759;51.972;5.650;2024-03-06T11:56:51;16.2;51.4
78467;SHT31;67759;51.972;5.650;2024-03-06T11:59:22;16.3;50.7
78467;SHT31;67759;51.972;5.650;2024-03-06T12:01:52;16.5;50.0
78467;SHT31;67759;51.972;5.650;2024-03-06T12:04:22;16.6;50.0
78467;SHT31;67759;51.972;5.650;2024-03-06T12:06:51;16.7;49.4
78467;SHT31;67759;51.972;5.650;2024-03-06T12:09:19;16.9;49.3
78467;SHT31;67759;51.972;5.650;2024-03-06T12:11:48;17.0;49.5
78467;SHT31;67759;51.972;5.650;2024-03-06T12:14:18;17.0;48.7
78467;SHT31;67759;51.972;5.650;2024-03-06T12:16:57;17.1;47.9
78467;SHT31;67759;51.972;5.650;2024-03-06T12:19:27;17.1;48.0
78467;SHT31;67759;51.972;5.650;2024-03-06T12:21:59;17.1;47.8
78467;SHT31;67759;51.972;5.650;2024-03-06T12:24:30;17.1;48.9
78467;SHT31;67759;51.972;5.650;2024-03-06T12:27:02;17.1;48.5
78467;SHT31;67759;51.972;5.650;2024-03-06T12:29:32;17.1;48.4
78467;SHT31;67759;51.972;5.650;2024-03-06T12:32:02;17.2;48.6
78467;SHT31;67759;51.972;5.650;2024-03-06T12:34:31;17.2;48.3
78467;SHT31;67759;51.972;5.650;2024-03-06T12:37:09;17.3;48.3
78467;SHT31;67759;51.972;5.650;2024-03-06T12:39:38;17.3;48.8
78467;SHT31;67759;51.972;5.650;2024-03-06T12:42:07;17.4;48.4
78467;SHT31;67759;51.972;5.650;2024-03-06T12:44:36;17.4;47.4
78467;SHT31;67759;51.972;5.650;2024-03-06T12:47:06;17.4;48.0
78467;SHT31;67759;51.972;5.650;2024-03-06T12:49:34;17.5;47.3
78467;SHT31;67759;51.972;5.650;2024-03-06T12:52:03;17.5;47.6
78467;SHT31;67759;51.972;5.650;2024-03-06T12:54:32;17.6;47.3
78467;SHT31;67759;51.972;5.650;2024-03-06T12:57:00;17.8;46.3
78467;SHT31;67759;51.972;5.650;2024-03-06T12:59:29;17.9;46.0
78467;SHT31;67759;51.972;5.650;2024-03-06T13:01:57;18.0;47.7
78467;SHT31;67759;51.972;5.650;2024-03-06T13:04:26;18.0;48.1
78467;SHT31;67759;51.972;5.650;2024-03-06T13:06:54;18.0;46.5
78467;SHT31;67759;51.972;5.650;2024-03-06T13:09:23;18.1;47.8
78467;SHT31;67759;51.972;5.650;2024-03-06T13:11:52;18.1;46.9
78467;SHT31;67759;51.972;5.650;2024-03-06T13:14:21;18.3;46.0
78467;SHT31;67759;51.972;5.650;2024-03-06T13:16:49;18.4;45.4
78467;SHT31;67759;51.972;5.650;2024-03-06T13:19:18;18.6;45.3
78467;SHT31;67759;51.972;5.650;2024-03-06T13:21:46;18.8;44.4
78467;SHT31;67759;51.972;5.650;2024-03-06T13:24:15;18.9;44.8
78467;SHT31;67759;51.972;5.650;2024-03-06T13:26:45;19.1;42.6
78467;SHT31;67759;51.972;5.650;2024-03-06T13:29:14;19.2;42.9
78467;SHT31;67759;51.972;5.650;2024-03-06T13:31:45;19.3;44.3
78467;SHT31;67759;51.972;5.650;2024-03-06T13:34:13;19.4;42.2
78467;SHT31;67759;51.972;5.650;2024-03-06T13:36:43;19.5;40.8
78467;SHT31;67759;51.972;5.650;2024-03-06T13:39:12;19.6;41.5
78467;SHT31;67759;51.972;5.650;2024-03-06T13:41:40;19.8;40.6
78467;SHT31;67759;51.972;5.650;2024-03-06T13:44:09;19.9;40.2
78467;SHT31;67759;51.972;5.650;2024-03-06T13:46:38;20.0;41.4
78467;SHT31;67759;51.972;5.650;2024-03-06T13:49:06;20.2;42.2
78467;SHT31;67759;51.972;5.650;2024-03-06T13:51:35;20.5;41.6
78467;SHT31;67759;51.972;5.650;2024-03-06T13:54:05;20.6;40.4
78467;SHT31;67759;51.972;5.650;2024-03-06T13:56:33;20.7;42.0
78467;SHT31;67759;51.972;5.650;2024-03-06T13:59:02;20.8;37.5
78467;SHT31;67759;51.972;5.650;2024-03-06T14:01:31;20.9;40.4
78467;SHT31;67759;51.972;5.650;2024-03-06T14:03:59;20.9;39.5
78467;SHT31;67759;51.972;5.650;2024-03-06T14:06:27;20.9;37.9
78467;SHT31;67759;51.972;5.650;2024-03-06T14:08:56;21.0;36.6
78467;SHT31;67759;51.972;5.650;2024-03-06T14:11:24;21.0;37.8
78467;SHT31;67759;51.972;5.650;2024-03-06T14:13:53;20.9;37.0
78467;SHT31;67759;51.972;5.650;2024-03-06T14:16:22;20.9;37.3
78467;SHT31;67759;51.972;5.650;2024-03-06T14:18:50;20.9;36.4
78467;SHT31;67759;51.972;5.650;2024-03-06T14:21:20;20.9;35.6
78467;SHT31;67759;51.972;5.650;2024-03-06T14:23:48;20.9;36.5
78467;SHT31;67759;51.972;5.650;2024-03-06T14:26:17;20.8;35.1
78467;SHT31;67759;51.972;5.650;2024-03-06T14:28:46;20.8;34.4
78467;SHT31;67759;51.972;5.650;2024-03-06T14:31:14;20.8;36.3
78467;SHT31;67759;51.972;5.650;2024-03-06T14:33:43;20.8;36.5
78467;SHT31;67759;51.972;5.650;2024-03-06T14:36:13;20.9;36.0
78467;SHT31;67759;51.972;5.650;2024-03-06T14:38:43;20.9;37.6
78467;SHT31;67759;51.972;5.650;2024-03-06T14:41:13;20.9;35.6
78467;SHT31;67759;51.972;5.650;2024-03-06T14:43:42;20.9;39.6
78467;SHT31;67759;51.972;5.650;2024-03-06T14:46:12;20.9;42.2
78467;SHT31;67759;51.972;5.650;2024-03-06T14:48:42;20.9;36.5
78467;SHT31;67759;51.972;5.650;2024-03-06T14:51:11;21.0;40.3
78467;SHT31;67759;51.972;5.650;2024-03-06T14:53:40;21.0;37.7
78467;SHT31;67759;51.972;5.650;2024-03-06T14:56:09;21.1;36.9
78467;SHT31;67759;51.972;5.650;2024-03-06T14:58:38;21.2;35.3
78467;SHT31;67759;51.972;5.650;2024-03-06T15:01:07;21.2;36.3
78467;SHT31;67759;51.972;5.650;2024-03-06T15:03:36;21.1;39.6
78467;SHT31;67759;51.972;5.650;2024-03-06T15:06:07;21.1;35.0
78467;SHT31;67759;51.972;5.650;2024-03-06T15:08:39;21.1;36.4
78467;SHT31;67759;51.972;5.650;2024-03-06T15:11:13;21.1;39.6
78467;SHT31;67759;51.972;5.650;2024-03-06T15:13:42;21.2;35.0
78467;SHT31;67759;51.972;5.650;2024-03-06T15:16:11;21.2;36.5
78467;SHT31;67759;51.972;5.650;2024-03-06T15:18:40;21.2;34.9
78467;SHT31;67759;51.972;5.650;2024-03-06T15:21:09;21.1;34.6
78467;SHT31;67759;51.972;5.650;2024-03-06T15:23:39;21.1;34.1
78467;SHT31;67759;51.972;5.650;2024-03-06T15:26:08;21.1;34.4
78467;SHT31;67759;51.972;5.650;2024-03-06T15:28:37;21.1;37.6
78467;SHT31;67759;51.972;5.650;2024-03-06T15:31:07;21.1;34.5
78467;SHT31;67759;51.972;5.650;2024-03-06T15:33:36;21.1;35.3
78467;SHT31;67759;51.972;5.650;2024-03-06T15:36:05;21.0;36.1
78467;SHT31;67759;51.972;5.650;2024-03-06T15:38:33;21.0;36.0
78467;SHT31;67759;51.972;5.650;2024-03-06T15:41:05;21.1;36.6
78467;SHT31;67759;51.972;5.650;2024-03-06T15:43:35;21.1;34.5
78467;SHT31;67759;51.972;5.650;2024-03-06T15:46:04;21.1;34.4
78467;SHT31;67759;51.972;5.650;2024-03-06T15:48:32;21.2;34.5
78467;SHT31;67759;51.972;5.650;2024-03-06T15:51:01;21.2;34.2
78467;SHT31;67759;51.972;5.650;2024-03-06T15:53:30;21.1;34.9
78467;SHT31;67759;51.972;5.650;2024-03-06T15:55:58;21.1;34.5
78467;SHT31;67759;51.972;5.650;2024-03-06T15:58:29;21.1;35.0
78467;SHT31;67759;51.972;5.650;2024-03-06T16:00:59;21.1;33.8
78467;SHT31;67759;51.972;5.650;2024-03-06T16:03:28;21.1;36.3
78467;SHT31;67759;51.972;5.650;2024-03-06T16:05:56;21.1;34.4
78467;SHT31;67759;51.972;5.650;2024-03-06T16:08:25;21.1;34.7
78467;SHT31;67759;51.972;5.650;2024-03-06T16:10:57;21.1;35.2
78467;SHT31;67759;51.972;5.650;2024-03-06T16:13:27;21.1;34.1
78467;SHT31;67759;51.972;5.650;2024-03-06T16:15:56;21.0;33.8
78467;SHT31;67759;51.972;5.650;2024-03-06T16:18:24;20.9;39.5